Time;durP1;ratioP1;P1;durP2;ratioP2;P2;SDS_P1;SDS_P2;PMS_P1;PMS_P2;Temp;Humidity;BMP_temperature;BMP_pressure;BME280_temperature;BME280_humidity;BME280_pressure;Samples;Min_cycle;Max_cycle;Signal;HPM_P1;HPM_P2
2024/03/05 00:02:18;;;;;;;33.60;10.68;;;4.40;99.90;;;2.96;97.56;101229.91;4899547;28;20062;-81
2024/03/05 00:04:45;;;;;;;22.30;11.35;;;4.40;99.90;;;2.93;97.12;101237.72;4905241;28;20079;-80
2024/03/05 00:07:21;;;;;;;28.88;10.95;;;4.30;99.90;;;2.87;97.25;101230.84;4910531;28;20050;-80
2024/03/05 00:09:47;;;;;;;35.58;10.80;;;4.20;99.90;;;2.78;97.24;101224.81;4906718;28;20035;-80
2024/03/05 00:12:13;;;;;;;35.25;10.82;;;4.20;99.90;;;2.75;96.96;101230.06;4907588;28;20035;-79
2024/03/05 00:14:46;;;;;;;27.25;10.15;;;4.20;99.90;;;2.73;97.13;101224.00;4897953;28;20032;-80
2024/03/05 00:17:12;;;;;;;34.75;11.20;;;4.10;99.90;;;2.67;97.50;101233.53;4889413;28;20518;-82
2024/03/05 00:19:51;;;;;;;;;;;;;;;;;;;;;
2024/03/05 00:22:18;;;;;;;26.65;10.50;;;;;;;2.64;97.90;101233.56;4900068;28;20591;-80
2024/03/05 00:24:43;;;;;;;29.98;10.45;;;4.10;99.90;;;2.62;97.94;101235.31;4932410;28;20046;-80
2024/03/05 00:27:19;;;;;;;25.45;9.00;;;4.10;99.90;;;2.62;98.56;101240.50;4909791;28;20086;-80
2024/03/05 00:29:45;;;;;;;24.65;9.77;;;4.10;99.90;;;2.62;98.76;101240.50;4921879;28;20107;-81
2024/03/05 00:32:11;;;;;;;24.77;9.57;;;4.10;99.90;;;2.61;98.85;101238.81;4907358;28;20034;-80
2024/03/05 00:34:38;;;;;;;27.10;9.73;;;4.10;99.90;;;2.63;99.37;101239.63;4909537;28;20041;-80
2024/03/05 00:37:09;;;;;;;25.08;9.43;;;4.10;99.90;;;2.62;99.21;101234.47;4896783;28;20034;-81
2024/03/05 00:39:35;;;;;;;24.52;8.55;;;4.00;99.90;;;2.60;99.90;101237.06;4903550;28;20062;-80
2024/03/05 00:42:03;;;;;;;25.73;8.73;;;4.00;99.90;;;2.57;99.84;101231.00;4904969;28;20045;-79
2024/03/05 00:44:29;;;;;;;23.58;9.02;;;4.00;99.90;;;2.59;100.00;101237.94;4888403;28;20576;-80
2024/03/05 00:46:55;;;;;;;38.03;10.10;;;4.00;99.90;;;2.58;100.00;101244.00;4904375;28;20043;-79
2024/03/05 00:49:30;;;;;;;24.55;8.32;;;4.10;99.90;;;2.60;100.00;101239.66;4887830;28;20065;-82
2024/03/05 00:51:56;;;;;;;28.20;8.85;;;4.10;99.90;;;2.57;100.00;101246.59;4891901;28;20537;-80
2024/03/05 00:54:33;;;;;;;31.98;9.13;;;;;;;2.60;100.00;101246.59;4845595;28;20048;-81
2024/03/05 00:57:00;;;;;;;26.25;8.05;;;4.10;99.90;;;2.58;100.00;101243.16;4945598;28;20050;-80
2024/03/05 00:59:26;;;;;;;25.85;8.85;;;4.10;99.90;;;2.56;100.00;101250.94;4896208;28;20054;-79
2024/03/05 01:02:01;;;;;;;24.25;8.63;;;4.10;99.90;;;2.58;100.00;101256.16;4922038;28;20508;-80
2024/03/05 01:04:27;;;;;;;29.75;9.70;;;4.00;99.90;;;2.57;100.00;101262.19;4883725;28;20041;-80
2024/03/05 01:06:54;;;;;;;29.45;9.30;;;4.10;99.90;;;2.57;100.00;101259.59;4863441;28;20028;-80
2024/03/05 01:09:34;;;;;;;33.30;8.48;;;4.00;99.90;;;2.55;100.00;101256.13;4934013;28;20038;-80
2024/03/05 01:12:09;;;;;;;36.08;9.10;;;4.00;99.90;;;2.54;100.00;101260.50;4897449;28;20042;-80
2024/03/05 01:14:35;;;;;;;27.38;8.38;;;4.00;99.90;;;2.53;100.00;101263.97;4906249;28;20043;-79
2024/03/05 01:17:04;;;;;;;18.55;8.35;;;4.00;99.90;;;2.52;100.00;101262.22;4860471;28;20074;-80
2024/03/05 01:19:33;;;;;;;27.58;8.77;;;4.00;99.90;;;2.52;100.00;101274.38;4888641;28;20046;-80
2024/03/05 01:22:01;;;;;;;19.83;8.30;;;4.00;99.90;;;2.50;100.00;101269.16;4919663;28;20041;-81
2024/03/05 01:24:27;;;;;;;25.17;8.20;;;4.00;99.90;;;2.51;100.00;101265.72;4898732;28;20042;-80
2024/03/05 01:26:54;;;;;;;30.15;8.48;;;4.00;99.90;;;2.51;100.00;101267.47;4862520;28;20048;-81
2024/03/05 01:29:25;;;;;;;28.80;7.72;;;4.00;99.90;;;2.46;100.00;101268.34;4879588;29;20055;-80
2024/03/05 01:31:56;;;;;;;18.77;7.03;;;3.90;99.90;;;2.47;100.00;101264.00;4880961;28;20048;-80
2024/03/05 01:34:23;;;;;;;21.42;7.80;;;4.00;99.90;;;2.44;100.00;101267.47;4853905;29;20063;-81
2024/03/05 01:36:57;;;;;;;24.98;7.05;;;3.90;99.90;;;2.45;100.00;101270.94;4964252;23;20050;-80
2024/03/05 01:39:27;;;;;;;24.48;8.13;;;3.90;99.90;;;2.44;100.00;101264.88;4892926;28;20456;-81
2024/03/05 01:42:00;;;;;;;23.45;7.68;;;3.90;99.90;;;2.42;100.00;101269.22;4924157;28;20038;-81
2024/03/05 01:44:28;;;;;;;29.95;7.90;;;3.90;99.90;;;2.37;100.00;101264.91;4927614;28;20030;-81
2024/03/05 01:47:03;;;;;;;23.52;9.00;;;3.90;99.90;;;2.39;100.00;101268.34;4907161;28;20034;-80
2024/03/05 01:50:18;;;;;;;22.30;7.13;;;3.80;99.90;;;2.36;100.00;101260.59;4855066;28;20095;-80
2024/03/05 01:52:44;;;;;;;25.85;8.45;;;3.80;99.90;;;2.33;100.00;101258.84;4909448;28;20030;-80
2024/03/05 01:55:23;;;;;;;25.48;7.45;;;3.80;99.90;;;2.32;100.00;101256.28;4918217;28;20045;-80
2024/03/05 01:57:51;;;;;;;22.35;8.05;;;3.80;99.90;;;2.31;100.00;101259.72;4992399;28;20034;-80
2024/03/05 02:00:23;;;;;;;23.75;7.97;;;3.80;99.90;;;2.31;100.00;101264.91;4965153;28;20128;-80
2024/03/05 02:02:49;;;;;;;23.75;7.70;;;3.80;99.90;;;2.30;100.00;101260.59;4961018;28;20042;-80
2024/03/05 02:05:15;;;;;;;22.23;6.95;;;3.80;99.90;;;2.31;100.00;101260.63;4929546;28;20094;-80
2024/03/05 02:07:42;;;;;;;18.02;7.35;;;3.80;99.90;;;2.29;100.00;101259.75;4933928;28;20035;-80
2024/03/05 02:10:15;;;;;;;35.38;7.85;;;3.80;99.90;;;2.28;100.00;101260.59;4936277;28;20054;-80
2024/03/05 02:12:41;;;;;;;24.65;8.05;;;3.80;99.90;;;2.28;100.00;101270.13;4941358;28;20061;-80
2024/03/05 02:15:34;;;;;;;23.38;7.60;;;3.70;99.90;;;2.25;100.00;101266.69;4947040;28;20018;-80
2024/03/05 02:18:00;;;;;;;17.98;7.30;;;3.70;99.90;;;2.23;100.00;101267.56;4950763;28;20066;-80
2024/03/05 02:20:28;;;;;;;23.27;7.25;;;3.70;99.90;;;2.20;100.00;101263.25;4947964;28;20517;-81
2024/03/05 02:22:54;;;;;;;22.20;6.93;;;3.70;99.90;;;2.19;100.00;101276.22;4921189;28;20047;-80
2024/03/05 02:25:25;;;;;;;21.98;7.80;;;3.70;99.90;;;2.15;100.00;101270.19;4924256;28;20042;-80
2024/03/05 02:27:53;;;;;;;19.25;7.93;;;3.60;99.90;;;2.16;100.00;101277.13;4906463;28;20046;-80
2024/03/05 02:30:20;;;;;;;20.92;7.43;;;3.60;99.90;;;2.06;100.00;101272.81;4843061;28;20039;-80
2024/03/05 02:32:46;;;;;;;23.80;7.65;;;3.60;99.90;;;2.06;100.00;101272.81;4868377;28;20031;-80
2024/03/05 02:35:19;;;;;;;19.88;7.18;;;3.60;99.90;;;2.08;100.00;101281.47;4918438;28;20030;-80
2024/03/05 02:37:45;;;;;;;24.88;7.95;;;3.60;99.90;;;2.08;100.00;101278.88;4878569;28;20059;-79
2024/03/05 02:40:15;;;;;;;24.20;7.38;;;3.60;99.90;;;2.10;100.00;101276.28;4897596;28;20062;-81
2024/03/05 02:42:48;;;;;;;17.05;7.22;;;3.60;99.90;;;2.11;100.00;101276.25;4966374;28;20046;-80
2024/03/05 02:45:15;;;;;;;16.23;6.95;;;3.60;99.90;;;2.11;100.00;101283.19;4912704;28;20050;-81
2024/03/05 02:47:48;;;;;;;28.27;9.05;;;3.60;99.90;;;2.14;100.00;101283.16;4903273;28;20097;-80
2024/03/05 02:50:14;;;;;;;21.95;7.95;;;3.60;99.90;;;2.16;100.00;101292.72;4901296;28;20036;-80
2024/03/05 02:52:40;;;;;;;25.20;7.95;;;3.60;99.90;;;2.19;100.00;101291.81;4939634;28;20455;-80
2024/03/05 02:55:16;;;;;;;20.27;7.75;;;3.70;99.90;;;2.21;100.00;101293.53;4918541;28;20061;-79
2024/03/05 02:57:43;;;;;;;22.13;8.05;;;3.70;99.90;;;2.22;100.00;101289.19;4912483;28;20030;-81
2024/03/05 03:00:18;;;;;;;27.88;7.70;;;3.70;99.90;;;2.22;100.00;101287.47;4903075;28;20039;-80
2024/03/05 03:02:50;;;;;;;21.45;7.55;;;3.70;99.90;;;2.22;100.00;101289.19;4874069;28;20427;-80
2024/03/05 03:05:17;;;;;;;18.05;7.60;;;3.70;99.90;;;2.18;100.00;101290.06;4970297;28;20034;-81
2024/03/05 03:07:53;;;;;;;24.80;7.38;;;3.60;99.90;;;2.13;100.00;101287.50;4956333;28;20033;-80
2024/03/05 03:10:22;;;;;;;26.90;7.32;;;3.50;99.90;;;2.07;100.00;101286.66;4959321;28;20033;-80
2024/03/05 03:12:55;;;;;;;25.33;8.18;;;3.50;99.90;;;2.04;100.00;101296.19;4950002;28;20169;-80
2024/03/05 03:15:24;;;;;;;23.75;7.30;;;3.50;99.90;;;1.97;100.00;101283.22;4957724;28;20031;-80
2024/03/05 03:17:49;;;;;;;15.23;6.78;;;3.40;99.90;;;1.93;100.00;101278.91;4962978;28;20042;-80
2024/03/05 03:20:24;;;;;;;27.40;7.63;;;3.40;99.90;;;1.91;100.00;101281.50;4927518;28;20117;-80
2024/03/05 03:22:50;;;;;;;25.13;7.43;;;3.40;99.90;;;1.83;100.00;101276.31;4920865;28;20041;-80
2024/03/05 03:25:16;;;;;;;25.02;7.57;;;3.40;99.90;;;1.84;100.00;101275.44;4923149;28;20034;-79
2024/03/05 03:27:42;;;;;;;25.08;7.07;;;3.40;99.90;;;1.84;100.00;101280.66;4921050;28;20441;-80
2024/03/05 03:30:17;;;;;;;29.88;7.65;;;3.30;99.90;;;1.88;100.00;101285.81;4965160;28;20031;-80
2024/03/05 03:32:44;;;;;;;18.73;7.50;;;3.30;99.90;;;1.88;100.00;101283.22;4915282;28;20049;-80
2024/03/05 03:35:13;;;;;;;20.17;7.53;;;3.40;99.90;;;1.90;100.00;101290.16;4949230;23;20038;-81
2024/03/05 03:37:41;;;;;;;21.00;7.10;;;3.40;99.90;;;1.90;100.00;101289.28;4916852;28;20043;-80
2024/03/05 03:40:17;;;;;;;23.35;7.43;;;3.40;99.90;;;1.92;100.00;101287.56;4882981;28;20062;-80
2024/03/05 03:42:45;;;;;;;23.80;8.02;;;3.40;99.90;;;1.93;100.00;101295.34;4868425;28;20042;-80
2024/03/05 03:45:15;;;;;;;25.92;7.47;;;3.40;99.90;;;1.96;100.00;101304.84;4965415;28;20040;-81
2024/03/05 03:47:51;;;;;;;;;;;;;;;;;;;;;
2024/03/05 03:50:17;;;;;;;19.50;6.82;;;3.40;99.90;;;1.93;100.00;101304.88;4935929;28;20042;-80
2024/03/05 03:52:43;;;;;;;24.55;7.35;;;3.40;99.90;;;1.90;100.00;101300.56;4934248;28;20108;-80
2024/03/05 03:55:09;;;;;;;22.40;7.93;;;3.40;99.90;;;1.87;100.00;101299.69;4909724;28;20581;-81
2024/03/05 03:57:43;;;;;;;20.33;7.15;;;3.30;99.90;;;1.83;100.00;101306.59;4930737;28;20162;-80
2024/03/05 04:00:15;;;;;;;25.48;7.38;;;3.30;99.90;;;1.79;100.00;101303.16;4935640;28;20042;-81
2024/03/05 04:02:45;;;;;;;25.67;7.47;;;;;;;1.75;100.00;101311.81;4948145;28;20102;-81
2024/03/05 04:05:11;;;;;;;20.80;7.07;;;3.30;99.90;;;1.73;100.00;101310.97;4967301;28;20062;-81
2024/03/05 04:07:37;;;;;;;29.45;7.03;;;3.20;99.90;;;1.73;100.00;101317.88;4919720;28;20038;-80
2024/03/05 04:10:23;;;;;;;23.00;8.02;;;3.20;99.90;;;1.73;100.00;101313.56;4944974;28;20141;-80
2024/03/05 04:12:53;;;;;;;25.02;8.25;;;3.20;99.90;;;1.74;100.00;101315.28;4931425;28;20036;-80
2024/03/05 04:15:27;;;;;;;28.50;8.45;;;3.20;99.90;;;1.76;100.00;101310.94;4947642;28;20084;-79
2024/03/05 04:18:07;;;;;;;27.02;7.72;;;3.30;99.90;;;1.78;100.00;101319.59;4929355;28;20041;-80
2024/03/05 04:20:53;;;;;;;25.92;7.72;;;3.30;99.90;;;1.88;100.00;101327.38;4928228;28;20040;-80
2024/03/05 04:23:21;;;;;;;24.85;8.00;;;3.40;99.90;;;1.93;100.00;101320.47;4939320;28;20050;-79
2024/03/05 04:25:47;;;;;;;28.48;7.53;;;3.40;99.90;;;2.00;100.00;101325.63;4931929;28;20121;-79
2024/03/05 04:28:13;;;;;;;29.42;8.15;;;3.50;99.90;;;2.06;100.00;101319.56;4969930;28;20054;-80
2024/03/05 04:30:48;;;;;;;21.67;8.27;;;3.60;99.90;;;2.15;100.00;101323.88;4949680;28;20123;-80
2024/03/05 04:33:20;;;;;;;27.40;8.45;;;3.60;99.90;;;2.21;100.00;101331.66;4964394;28;20042;-80
2024/03/05 04:35:51;;;;;;;28.00;7.90;;;3.70;99.90;;;2.28;100.00;101332.50;4951492;28;20526;-79
2024/03/05 04:38:17;;;;;;;22.40;7.70;;;3.70;99.90;;;2.32;100.00;101336.84;4938800;28;20034;-79
2024/03/05 04:40:42;;;;;;;24.67;8.70;;;3.80;99.90;;;2.37;100.00;101335.94;4902794;28;20038;-80
2024/03/05 04:43:27;;;;;;;22.70;7.80;;;3.80;99.90;;;2.42;100.00;101331.59;4954167;28;20137;-80
2024/03/05 04:46:00;;;;;;;27.63;8.13;;;3.90;99.90;;;2.46;100.00;101333.31;4929842;28;20038;-80
2024/03/05 04:48:26;;;;;;;24.70;8.50;;;3.90;99.90;;;2.50;100.00;101328.97;4934990;28;20038;-82
2024/03/05 04:50:55;;;;;;;23.92;8.25;;;4.00;99.90;;;2.53;100.00;101330.69;4951114;28;20114;-80
2024/03/05 04:53:26;;;;;;;29.63;9.00;;;4.00;99.90;;;2.55;100.00;101332.44;4981619;28;20040;-80
2024/03/05 04:55:55;;;;;;;22.23;7.78;;;4.00;99.90;;;2.56;100.00;101333.28;4958977;28;20200;-80
2024/03/05 04:58:46;;;;;;;24.92;8.40;;;4.00;99.90;;;2.57;100.00;101332.41;4924171;28;20042;-80
2024/03/05 05:01:12;;;;;;;30.80;8.90;;;4.00;99.90;;;2.55;100.00;101337.63;4921630;28;20041;-80
2024/03/05 05:03:42;;;;;;;34.63;9.98;;;4.00;99.90;;;2.58;100.00;101337.59;4941564;28;20042;-80
2024/03/05 05:06:15;;;;;;;30.10;9.13;;;4.00;99.90;;;2.61;100.00;101337.59;4935101;28;20109;-80
2024/03/05 05:08:41;;;;;;;24.40;8.13;;;4.10;99.90;;;2.60;100.00;101338.47;4936262;28;20501;-80
2024/03/05 05:11:06;;;;;;;24.48;9.15;;;4.10;99.90;;;2.61;100.00;101335.00;4967602;28;20047;-80
2024/03/05 05:13:35;;;;;;;26.73;8.93;;;4.10;99.90;;;2.63;100.00;101329.78;4947306;28;20160;-80
2024/03/05 05:16:08;;;;;;;27.98;9.27;;;4.10;99.90;;;2.64;100.00;101332.38;4929739;28;20042;-80
2024/03/05 05:18:34;;;;;;;28.73;8.95;;;4.10;99.90;;;2.64;100.00;101334.97;4931093;28;20061;-80
2024/03/05 05:21:14;;;;;;;31.35;10.75;;;4.10;99.90;;;2.65;100.00;101330.63;4925686;28;20061;-80
2024/03/05 05:23:40;;;;;;;30.30;8.73;;;4.10;99.90;;;2.65;100.00;101333.22;4926182;28;20033;-80
2024/03/05 05:26:06;;;;;;;23.67;10.13;;;4.10;99.90;;;2.69;100.00;101339.28;4910725;28;20039;-80
2024/03/05 05:28:41;;;;;;;30.38;10.00;;;4.10;99.90;;;2.72;100.00;101341.88;4913544;28;20361;-80
2024/03/05 05:31:26;;;;;;;22.75;9.85;;;4.20;99.90;;;2.73;100.00;101341.03;4941638;28;20812;-80
2024/03/05 05:34:00;;;;;;;24.90;10.15;;;4.20;99.90;;;2.76;100.00;101341.00;4922273;28;20071;-80
2024/03/05 05:36:26;;;;;;;25.60;9.88;;;4.20;99.90;;;2.79;100.00;101335.78;4975508;28;20042;-79
2024/03/05 05:38:52;;;;;;;24.25;10.23;;;4.30;99.90;;;2.82;100.00;101346.16;4931275;28;20038;-80
2024/03/05 05:41:18;;;;;;;31.45;10.43;;;4.30;99.90;;;2.86;100.00;101353.94;4937291;28;20034;-79
2024/03/05 05:43:50;;;;;;;28.30;10.95;;;4.30;99.90;;;2.87;100.00;101347.00;4944704;28;20113;-81
2024/03/05 05:46:18;;;;;;;29.23;11.00;;;4.30;99.90;;;2.88;100.00;101351.34;4899061;28;20528;-82
2024/03/05 05:49:05;;;;;;;31.77;11.35;;;4.30;99.90;;;2.85;100.00;101359.16;4910622;28;20045;-79
2024/03/05 05:51:34;;;;;;;27.35;9.98;;;4.30;99.90;;;2.81;100.00;101360.06;4933947;28;20086;-80
2024/03/05 05:54:10;;;;;;;33.60;9.95;;;4.30;99.90;;;2.80;100.00;101359.16;4939245;28;20030;-80
2024/03/05 05:56:48;;;;;;;32.83;11.10;;;4.20;99.90;;;2.80;100.00;101361.78;4890392;28;20047;-79
2024/03/05 05:59:24;;;;;;;32.70;11.95;;;4.20;99.90;;;2.77;100.00;101364.41;4935472;28;20035;-80
2024/03/05 06:01:49;;;;;;;32.75;11.77;;;4.20;99.90;;;2.77;100.00;101369.59;4910310;28;20043;-80
2024/03/05 06:04:15;;;;;;;30.15;12.50;;;4.30;99.90;;;2.78;100.00;101371.31;4931061;28;20110;-80
2024/03/05 06:06:46;;;;;;;31.10;13.02;;;4.20;99.90;;;2.83;100.00;101371.28;4923267;28;20106;-80
2024/03/05 06:09:22;;;;;;;27.05;12.02;;;4.30;99.90;;;2.85;100.00;101373.03;4907705;28;20053;-80
2024/03/05 06:11:57;;;;;;;32.60;12.88;;;4.40;99.90;;;2.90;100.00;101370.41;4910819;28;20100;-79
2024/03/05 06:14:32;;;;;;;28.35;12.00;;;4.40;99.90;;;2.96;100.00;101370.38;4904580;28;20030;-79
2024/03/05 06:16:58;;;;;;;28.23;12.75;;;4.40;99.90;;;3.02;100.00;101377.28;4944003;28;20049;-80
2024/03/05 06:19:24;;;;;;;41.03;13.63;;;4.50;99.90;;;3.05;100.00;101370.34;4972564;28;20408;-81
2024/03/05 06:21:57;;;;;;;27.15;12.25;;;4.50;99.90;;;3.07;100.00;101376.41;4943167;28;20041;-80
2024/03/05 06:24:23;;;;;;;33.20;12.60;;;4.50;99.90;;;3.12;100.00;101386.78;4977583;28;20042;-81
2024/03/05 06:26:49;;;;;;;28.25;12.70;;;4.60;99.90;;;3.13;100.00;101388.50;4944671;28;20117;-80
2024/03/05 06:29:16;;;;;;;27.65;12.38;;;4.60;99.90;;;3.14;100.00;101395.44;4960064;28;20038;-81
2024/03/05 06:31:41;;;;;;;29.70;13.98;;;4.60;99.90;;;3.17;100.00;101390.22;4940823;28;20085;-81
2024/03/05 06:34:15;;;;;;;32.63;13.68;;;4.60;99.90;;;3.16;100.00;101385.88;4951318;28;20491;-82
2024/03/05 06:36:43;;;;;;;27.75;12.65;;;4.60;99.90;;;3.15;100.00;101391.09;4963002;23;20034;-82
2024/03/05 06:39:18;;;;;;;32.92;13.35;;;4.60;99.90;;;3.18;100.00;101391.09;4901393;28;20105;-79
2024/03/05 06:41:56;;;;;;;41.00;13.40;;;4.60;99.90;;;3.20;100.00;101404.97;4918094;28;20065;-80
2024/03/05 06:44:25;;;;;;;28.52;12.38;;;4.60;99.90;;;3.18;100.00;101402.38;4923602;28;20082;-80
2024/03/05 06:46:54;;;;;;;27.67;13.18;;;4.70;99.90;;;3.25;100.00;101406.66;4879617;28;20042;-81
2024/03/05 06:49:37;;;;;;;35.10;13.55;;;4.70;99.90;;;3.33;100.00;101405.75;4921612;28;20069;-80
2024/03/05 06:57:34;;;;;;;28.48;13.80;;;4.80;99.90;;;3.45;100.00;101406.53;4943357;28;20048;-80
2024/03/05 07:00:15;;;;;;;25.60;13.02;;;4.90;99.90;;;3.54;100.00;101417.75;4920207;28;20412;-80
2024/03/05 07:02:46;;;;;;;24.67;13.20;;;4.90;99.90;;;3.59;100.00;101419.47;4924382;28;20053;-80
2024/03/05 07:05:12;;;;;;;23.27;12.43;;;5.00;99.90;;;3.67;100.00;101416.81;4922755;28;20045;-80
2024/03/05 07:07:40;;;;;;;31.23;12.25;;;5.00;99.90;;;3.73;100.00;101423.72;4936222;28;20468;-80
2024/03/05 07:10:21;;;;;;;25.88;11.65;;;5.10;99.90;;;3.82;99.62;101428.84;4934469;28;20071;-80
2024/03/05 07:12:56;;;;;;;27.08;11.68;;;5.20;99.90;;;3.88;98.87;101429.66;4920536;28;20034;-80
2024/03/05 07:15:23;;;;;;;20.93;9.73;;;5.20;99.90;;;3.95;98.23;101430.47;4904024;28;20039;-80
2024/03/05 07:17:49;;;;;;;24.85;11.20;;;5.30;99.90;;;4.00;97.54;101427.88;4948707;28;20034;-81
2024/03/05 07:20:24;;;;;;;22.13;11.20;;;5.30;99.90;;;4.05;96.68;101431.28;4903627;28;20097;-81
2024/03/05 07:23:02;;;;;;;19.98;10.27;;;5.40;99.90;;;4.06;96.33;101428.69;4902330;28;20109;-80
2024/03/05 07:25:28;;;;;;;30.33;11.93;;;5.40;99.90;;;4.06;95.27;101430.41;4909714;28;20579;-79
2024/03/05 07:27:54;;;;;;;25.67;11.43;;;5.40;99.90;;;4.06;95.53;101435.59;4925565;28;20049;-80
2024/03/05 07:30:21;;;;;;;28.90;10.25;;;5.40;99.90;;;4.01;95.09;101434.78;4930906;28;20041;-80
2024/03/05 07:32:53;;;;;;;29.90;10.60;;;5.40;99.90;;;3.93;94.96;101434.88;4942177;28;20101;-80
2024/03/05 07:35:19;;;;;;;31.02;10.85;;;5.30;99.90;;;3.93;95.03;101450.50;4925729;28;20034;-79
2024/03/05 07:37:46;;;;;;;29.25;10.25;;;5.30;99.90;;;3.89;94.76;101443.59;4954606;28;20071;-80
2024/03/05 07:40:22;;;;;;;23.85;10.95;;;5.30;99.90;;;3.84;94.69;101446.19;4943681;28;20069;-80
2024/03/05 07:42:53;;;;;;;17.55;9.27;;;5.20;99.90;;;3.81;94.79;101447.97;4955619;28;20513;-80
2024/03/05 07:45:25;;;;;;;27.88;9.98;;;5.20;99.90;;;3.78;94.60;101443.66;4961255;28;20057;-79
2024/03/05 07:47:51;;;;;;;27.17;9.90;;;5.20;99.90;;;3.75;94.58;101435.84;4942522;28;21153;-80
2024/03/05 07:50:17;;;;;;;25.02;9.57;;;5.20;99.90;;;3.78;94.62;101433.25;4959029;28;20030;-80
2024/03/05 07:52:57;;;;;;;25.50;9.70;;;5.20;99.90;;;3.79;94.49;101437.56;4946292;28;20049;-81
2024/03/05 07:55:25;;;;;;;18.88;9.35;;;5.20;99.90;;;3.82;93.96;101441.88;4972531;28;20052;-80
2024/03/05 07:57:58;;;;;;;24.10;8.85;;;5.20;99.90;;;3.74;94.08;101438.47;4956073;28;20033;-80
2024/03/05 08:00:24;;;;;;;20.15;9.15;;;5.20;99.90;;;3.74;92.88;101443.66;4928348;28;20041;-80
2024/03/05 08:02:55;;;;;;;22.52;9.23;;;5.20;99.90;;;3.73;92.78;101441.94;4949699;28;20567;-80
2024/03/05 08:05:26;;;;;;;33.63;9.90;;;5.20;99.90;;;3.72;92.77;101443.69;4983537;28;20063;-80
2024/03/05 08:07:56;;;;;;;24.83;9.88;;;5.20;99.90;;;3.77;92.59;101444.53;4950469;28;20039;-80
2024/03/05 08:10:28;;;;;;;31.70;10.00;;;5.20;99.90;;;3.77;92.82;101447.13;4926119;28;20034;-80
2024/03/05 08:12:55;;;;;;;25.58;10.55;;;5.20;99.90;;;3.80;92.48;101451.44;4958964;28;20060;-80
2024/03/05 08:15:25;;;;;;;29.85;9.63;;;5.20;99.90;;;3.77;92.50;101446.28;4905379;28;20524;-79
2024/03/05 08:18:01;;;;;;;22.75;9.82;;;5.20;99.90;;;3.79;92.00;101453.19;4939706;28;21615;-81
2024/03/05 08:20:26;;;;;;;24.83;9.90;;;5.20;99.90;;;3.76;92.28;101452.34;5012194;28;20033;-80
2024/03/05 08:22:54;;;;;;;29.45;9.50;;;5.20;99.90;;;3.82;91.92;101458.41;4950267;28;20057;-80
2024/03/05 08:25:28;;;;;;;23.08;9.07;;;5.30;99.90;;;3.87;92.17;101467.03;4964696;28;20030;-80
2024/03/05 08:27:55;;;;;;;16.92;7.50;;;5.30;99.90;;;3.93;91.84;101460.03;4941997;28;20046;-80
2024/03/05 08:30:29;;;;;;;22.02;8.07;;;5.40;99.90;;;4.01;91.91;101468.66;4976429;28;20037;-80
2024/03/05 08:32:55;;;;;;;29.95;8.43;;;5.40;99.90;;;4.06;91.80;101474.69;4977809;28;20131;-80
2024/03/05 08:35:22;;;;;;;26.02;8.50;;;5.50;99.90;;;4.12;92.24;101479.88;4971077;28;21505;-80
2024/03/05 08:37:49;;;;;;;22.40;8.02;;;5.50;99.90;;;4.15;91.87;101476.38;4952587;28;20543;-81
2024/03/05 08:40:25;;;;;;;15.07;6.28;;;5.50;99.90;;;4.14;91.48;101478.13;4943299;28;20042;-80
2024/03/05 08:43:00;;;;;;;19.83;7.40;;;5.50;99.90;;;4.15;90.26;101479.88;4974336;28;20084;-80
2024/03/05 08:45:26;;;;;;;14.00;6.57;;;5.60;99.90;;;4.20;89.53;101485.91;4966753;28;20035;-80
2024/03/05 08:47:54;;;;;;;20.00;6.47;;;5.60;99.90;;;4.26;88.94;101475.41;4987785;28;20478;-81
2024/03/05 08:50:30;;;;;;;14.00;6.03;;;5.70;99.90;;;4.37;88.19;101482.28;4944728;28;20021;-81
2024/03/05 08:52:57;;;;;;;19.17;6.10;;;5.80;99.90;;;4.58;87.08;101482.09;4948588;28;20118;-80
2024/03/05 08:55:23;;;;;;;16.63;6.03;;;5.90;99.90;;;4.75;85.30;101481.03;4951037;28;20033;-81
2024/03/05 08:57:59;;;;;;;13.07;5.30;;;6.10;99.90;;;4.76;84.22;101481.03;4935840;28;20034;-80
2024/03/05 09:00:26;;;;;;;;;;;6.10;99.90;;;4.67;82.46;101479.38;4940561;28;20032;-81
2024/03/05 09:02:54;;;;;;;10.60;5.30;;;6.00;99.90;;;4.61;81.62;101489.88;4957101;28;19980;-80
2024/03/05 09:05:32;;;;;;;12.48;5.50;;;6.00;99.90;;;4.56;81.79;101488.19;4993891;28;20038;-80
2024/03/05 09:07:58;;;;;;;15.02;5.45;;;5.90;99.90;;;4.41;81.70;101490.06;4933174;28;20129;-80
2024/03/05 09:10:31;;;;;;;14.77;6.03;;;5.80;99.90;;;4.34;82.18;101485.75;4954530;28;20026;-80
2024/03/05 09:13:02;;;;;;;15.77;5.22;;;5.70;99.90;;;4.28;82.73;101491.06;4985731;28;20042;-80
2024/03/05 09:15:35;;;;;;;14.70;5.55;;;5.70;99.90;;;4.18;83.26;101492.88;4920646;28;20038;-80
2024/03/05 09:18:07;;;;;;;18.05;5.65;;;5.60;99.90;;;4.22;83.98;101496.31;4950900;28;20060;-80
2024/03/05 09:20:37;;;;;;;18.40;5.65;;;5.60;99.90;;;4.13;83.73;101489.44;4932700;28;20040;-80
2024/03/05 09:23:04;;;;;;;12.63;5.78;;;5.60;99.90;;;4.10;83.70;101492.03;4939662;28;20049;-81
2024/03/05 09:25:32;;;;;;;12.18;5.55;;;5.60;99.90;;;4.11;83.98;101491.19;4965404;28;20026;-80
2024/03/05 09:28:15;;;;;;;12.65;5.55;;;5.60;99.90;;;4.16;84.84;101483.31;4960493;28;20107;-80
2024/03/05 09:31:08;;;;;;;18.70;5.97;;;5.60;99.90;;;4.19;85.29;101486.78;4932962;28;20043;-81
2024/03/05 09:33:34;;;;;;;16.73;5.93;;;5.60;99.90;;;4.20;85.15;101488.50;4944228;28;20547;-81
2024/03/05 09:36:08;;;;;;;14.85;5.43;;;5.60;99.90;;;4.20;85.70;101488.50;4975083;28;20102;-80
2024/03/05 09:38:34;;;;;;;13.63;6.10;;;5.60;99.90;;;4.17;85.43;101482.44;4939092;28;20113;-80
2024/03/05 09:41:01;;;;;;;15.30;5.93;;;5.60;99.90;;;4.15;85.55;101486.78;4988923;28;20033;-80
2024/03/05 09:43:39;;;;;;;14.45;6.28;;;5.60;99.90;;;4.18;85.73;101487.66;4947872;28;20037;-79
2024/03/05 09:46:31;;;;;;;15.60;6.18;;;5.60;99.90;;;4.16;85.62;101492.00;4907327;28;20486;-80
2024/03/05 09:48:57;;;;;;;14.48;5.97;;;5.60;99.90;;;4.15;85.09;101492.00;4941128;28;20054;-80
2024/03/05 09:51:35;;;;;;;16.63;6.40;;;5.60;99.90;;;4.17;85.25;101488.53;4955952;28;20141;-81
2024/03/05 09:54:04;;;;;;;12.70;5.90;;;5.60;99.90;;;4.19;84.83;101491.13;4942566;28;20050;-80
2024/03/05 09:56:58;;;;;;;14.93;5.88;;;5.60;99.90;;;4.23;84.21;101485.88;4915216;28;20050;-80
2024/03/05 09:59:36;;;;;;;15.25;5.65;;;5.60;99.90;;;4.29;83.56;101496.25;4939094;28;20583;-80
2024/03/05 10:02:02;;;;;;;14.20;6.20;;;5.70;99.90;;;4.37;83.66;101505.75;4963618;28;20034;-80
2024/03/05 10:04:31;;;;;;;13.98;5.82;;;5.70;99.90;;;4.35;82.93;101494.47;4995763;28;20087;-80
2024/03/05 10:07:09;;;;;;;13.63;5.95;;;5.70;99.90;;;4.34;82.79;101492.72;4930341;28;20037;-80
2024/03/05 10:09:44;;;;;;;18.05;6.13;;;5.70;99.90;;;4.30;82.51;101499.75;4961289;28;20046;-80
2024/03/05 10:12:37;;;;;;;11.73;6.63;;;5.70;99.90;;;4.32;82.28;101496.22;4974239;28;20038;-84
2024/03/05 10:15:37;;;;;;;15.48;6.00;;;5.70;99.90;;;4.31;82.11;101504.91;4927358;28;20038;-82
2024/03/05 10:18:29;;;;;;;16.42;6.20;;;5.80;99.90;;;4.34;82.39;101498.81;4959760;28;20045;-83
2024/03/05 10:20:55;;;;;;;12.75;6.30;;;;;;;4.41;82.59;101494.44;4947120;28;20627;-82
2024/03/05 10:23:34;;;;;;;16.25;6.40;;;5.80;99.90;;;4.47;82.30;101497.84;4927319;28;22245;-81
2024/03/05 10:26:30;;;;;;;18.75;6.90;;;5.80;99.90;;;4.43;82.14;101495.28;4965818;28;20041;-81
2024/03/05 10:29:26;;;;;;;19.88;7.35;;;5.90;99.90;;;4.42;82.19;101494.41;4973701;28;20424;-81
2024/03/05 10:31:53;;;;;;;18.58;8.13;;;5.80;99.90;;;4.24;81.84;101500.63;4957788;28;20046;-82
2024/03/05 10:34:24;;;;;;;17.20;8.00;;;5.80;99.90;;;4.28;82.52;101499.75;4927046;28;20071;-82
2024/03/05 10:37:08;;;;;;;21.95;9.98;;;5.70;99.90;;;4.28;82.71;101504.94;4898418;28;20046;-81
2024/03/05 10:39:35;;;;;;;15.50;7.78;;;5.70;99.90;;;4.21;82.91;101499.78;4855222;28;20047;-82
2024/03/05 10:42:12;;;;;;;16.40;7.97;;;5.70;99.90;;;4.22;83.52;101504.13;4948373;28;20043;-83